createdAt,value
2022-08-08T00:00:41.121Z,63.08
2022-08-08T00:06:03.931Z,64.13
2022-08-08T00:11:17.578Z,64.99
2022-08-08T00:16:37.279Z,66.02
2022-08-08T00:21:51.644Z,66.64
2022-08-08T00:26:59.144Z,67.59
2022-08-08T00:32:33.005Z,68.49
2022-08-08T00:38:01.952Z,69.23
2022-08-08T00:43:39.947Z,69.79
2022-08-08T00:49:05.139Z,70.52
2022-08-08T00:54:43.413Z,70.18
2022-08-08T01:00:06.473Z,70.39
2022-08-08T01:05:59.156Z,71.07
2022-08-08T01:11:43.255Z,71.44
2022-08-08T01:17:35.069Z,71.63
2022-08-08T01:24:06.130Z,71.58
2022-08-08T01:29:24.223Z,71.55
2022-08-08T01:34:45.595Z,70.62
2022-08-08T01:40:14.599Z,71.65
2022-08-08T01:45:37.585Z,72.02
2022-08-08T01:50:58.211Z,71.77
2022-08-08T01:56:28.559Z,72.05
2022-08-08T02:02:03.120Z,72.23
2022-08-08T02:07:16.628Z,73.04
2022-08-08T02:12:31.927Z,73.29
2022-08-08T02:17:44.213Z,72.72
2022-08-08T02:22:58.874Z,72.41
2022-08-08T02:28:09.869Z,71.77
2022-08-08T02:34:00.199Z,70.78
2022-08-08T02:39:40.755Z,70.17
2022-08-08T02:45:22.613Z,70.40
2022-08-08T02:50:58.660Z,70.31
2022-08-08T02:56:34.870Z,69.54
2022-08-08T03:02:20.361Z,68.90
2022-08-08T03:08:02.356Z,68.77
2022-08-08T03:16:00.297Z,68.76
2022-08-08T03:19:50.841Z,68.65
2022-08-08T03:24:57.003Z,68.71
2022-08-08T03:30:05.489Z,68.62
2022-08-08T03:35:12.974Z,68.99
2022-08-08T03:40:29.723Z,68.90
2022-08-08T03:46:03.307Z,68.82
2022-08-08T03:50:58.668Z,69.81
2022-08-08T03:56:04.521Z,70.13
2022-08-08T04:01:23.345Z,70.31
2022-08-08T04:06:30.504Z,70.55
2022-08-08T04:11:58.042Z,70.75
2022-08-08T04:17:06.944Z,70.43
2022-08-08T04:22:26.837Z,70.72
2022-08-08T04:28:03.677Z,70.52
2022-08-08T04:32:58.348Z,70.64
2022-08-08T04:38:02.606Z,70.78
2022-08-08T04:43:08.857Z,69.76
2022-08-08T04:48:16.563Z,70.06
2022-08-08T04:54:27.444Z,69.83
2022-08-08T04:58:50.697Z,69.07
2022-08-08T05:04:10.272Z,69.33
2022-08-08T05:09:16.737Z,69.03
2022-08-08T05:14:21.351Z,68.86
2022-08-08T05:20:10.911Z,68.60
2022-08-08T05:24:57.492Z,68.50
2022-08-08T05:30:03.817Z,67.82
2022-08-08T05:35:13.683Z,68.17
2022-08-08T05:40:18.709Z,67.45
2022-08-08T05:45:41.661Z,67.65
2022-08-08T05:50:58.991Z,68.01
2022-08-08T05:56:20.442Z,67.96
2022-08-08T06:01:56.359Z,68.37
2022-08-08T06:07:03.704Z,68.56
2022-08-08T06:12:10.175Z,69.04
2022-08-08T06:17:50.570Z,69.40
2022-08-08T06:22:46.884Z,70.21
2022-08-08T06:27:57.811Z,70.58
2022-08-08T06:33:04.025Z,71.92
2022-08-08T06:38:18.948Z,72.98
2022-08-08T06:43:28.520Z,73.81
2022-08-08T06:48:35.908Z,73.07
2022-08-08T06:53:50.961Z,73.09
2022-08-08T06:59:00.296Z,73.38
2022-08-08T07:04:41.611Z,74.10
2022-08-08T07:09:45.286Z,74.21
2022-08-08T07:15:06.329Z,74.61
2022-08-08T07:20:32.609Z,74.52
2022-08-08T07:25:59.807Z,74.09
2022-08-08T07:31:04.616Z,73.72
2022-08-08T07:36:11.240Z,73.07
2022-08-08T07:41:23.893Z,73.41
2022-08-08T07:46:32.411Z,72.73
2022-08-08T07:51:45.173Z,72.38
2022-08-08T07:57:10.923Z,72.58
2022-08-08T08:02:36.909Z,72.01
2022-08-08T08:07:42.998Z,71.35
2022-08-08T08:12:57.535Z,71.22
2022-08-08T08:18:06.855Z,69.98
2022-08-08T08:23:18.387Z,68.74
2022-08-08T08:28:24.130Z,69.23
2022-08-08T08:33:28.542Z,69.33
2022-08-08T08:38:32.329Z,67.23
2022-08-08T08:43:42.419Z,67.51
2022-08-08T08:48:51.544Z,68.11
2022-08-08T08:54:00.994Z,68.06
2022-08-08T08:59:05.809Z,67.59
2022-08-08T09:04:30.148Z,65.70
2022-08-08T09:09:47.952Z,65.53
2022-08-08T09:14:55.630Z,65.51
2022-08-08T09:21:56.278Z,64.72
2022-08-08T09:25:36.233Z,63.51
2022-08-08T09:30:53.964Z,62.79
2022-08-08T09:36:02.287Z,59.83
2022-08-08T09:41:10.190Z,58.94
2022-08-08T09:46:25.505Z,57.06
2022-08-08T09:52:07.536Z,56.58
2022-08-08T09:57:16.072Z,55.25
2022-08-08T10:02:25.956Z,54.50
2022-08-08T10:07:43.230Z,53.01
2022-08-08T10:12:53.349Z,52.78
2022-08-08T10:18:06.135Z,52.69
2022-08-08T10:23:29.271Z,52.22
2022-08-08T10:29:07.266Z,52.24
2022-08-08T10:34:21.447Z,52.54
2022-08-08T10:39:43.146Z,52.51
2022-08-08T10:45:01.228Z,53.06
2022-08-08T10:50:07.999Z,52.75
2022-08-08T10:55:15.377Z,52.10
2022-08-08T11:00:25.647Z,51.13
2022-08-08T11:05:38.957Z,50.77
2022-08-08T11:10:44.263Z,51.35
2022-08-08T11:16:00.339Z,52.30
2022-08-08T11:21:10.307Z,52.32
2022-08-08T11:26:28.160Z,50.93
2022-08-08T11:31:46.955Z,50.07
2022-08-08T11:36:58.576Z,49.95
2022-08-08T11:42:09.174Z,49.47
2022-08-08T11:47:17.140Z,48.91
2022-08-08T11:52:27.474Z,48.32
2022-08-08T11:57:36.051Z,48.47
2022-08-08T12:02:51.078Z,48.56
2022-08-08T12:07:56.840Z,48.68
2022-08-08T12:13:06.186Z,48.31
2022-08-08T12:18:28.621Z,47.90
2022-08-08T12:23:43.711Z,47.60
2022-08-08T12:28:58.479Z,47.74
2022-08-08T12:34:03.245Z,48.25
2022-08-08T12:39:08.020Z,47.45
2022-08-08T12:44:32.021Z,48.06
2022-08-08T12:49:46.563Z,48.82
2022-08-08T12:55:09.422Z,47.99
2022-08-08T13:00:34.204Z,47.43
2022-08-08T13:06:04.985Z,47.82
2022-08-08T13:11:18.619Z,47.42
2022-08-08T13:16:25.613Z,47.80
2022-08-08T13:21:53.686Z,47.37
2022-08-08T13:27:03.523Z,46.19
2022-08-08T13:32:14.519Z,46.43
2022-08-08T13:37:28.036Z,46.12
2022-08-08T13:42:46.111Z,45.64
2022-08-08T13:47:58.202Z,45.95
2022-08-08T13:53:02.107Z,45.87
2022-08-08T13:58:29.104Z,45.45
2022-08-08T14:03:52.530Z,44.42
2022-08-08T14:08:58.056Z,43.82
2022-08-08T14:14:04.901Z,44.21
2022-08-08T14:19:17.682Z,43.66
2022-08-08T14:24:34.248Z,43.81
2022-08-08T14:29:39.446Z,44.21
2022-08-08T14:34:49.569Z,44.00
2022-08-08T14:40:06.703Z,43.25
2022-08-08T14:45:13.333Z,43.95
2022-08-08T14:50:37.577Z,44.22
2022-08-08T14:55:43.717Z,43.82
2022-08-08T15:00:49.823Z,44.35
2022-08-08T15:05:58.820Z,44.43
2022-08-08T15:11:04.714Z,44.62
2022-08-08T15:16:12.049Z,44.95
2022-08-08T15:21:18.468Z,45.62
2022-08-08T15:26:25.793Z,46.36
2022-08-08T15:32:03.867Z,46.88
2022-08-08T15:36:56.653Z,46.52
2022-08-08T15:42:02.055Z,46.40
2022-08-08T15:47:15.791Z,47.03
2022-08-08T15:52:25.005Z,47.27
2022-08-08T15:57:35.304Z,47.85
2022-08-08T16:02:50.976Z,48.29
2022-08-08T16:07:56.447Z,48.59
2022-08-08T16:13:28.531Z,48.53
2022-08-08T16:18:28.699Z,48.64
2022-08-08T16:23:34.046Z,49.05
2022-08-08T16:28:38.492Z,49.03
2022-08-08T16:33:49.836Z,49.30
2022-08-08T16:39:16.554Z,49.76
2022-08-08T16:44:54.515Z,50.28
2022-08-08T16:50:04.506Z,50.59
2022-08-08T16:55:33.898Z,50.81
2022-08-08T17:00:36.338Z,51.33
2022-08-08T17:05:44.577Z,51.38
2022-08-08T17:10:58.187Z,51.78
2022-08-08T17:16:03.699Z,51.87
2022-08-08T17:21:11.703Z,51.81
2022-08-08T17:26:16.472Z,51.86
2022-08-08T17:31:44.797Z,52.11
2022-08-08T17:37:00.642Z,52.23
2022-08-08T17:42:07.930Z,52.55
2022-08-08T17:47:15.982Z,52.76
2022-08-08T17:52:28.132Z,53.23
2022-08-08T17:57:35.339Z,53.65
2022-08-08T18:02:39.818Z,54.52
2022-08-08T18:08:01.994Z,54.82
2022-08-08T18:13:08.946Z,54.93
2022-08-08T18:18:29.403Z,55.31
2022-08-08T18:23:36.984Z,55.33
2022-08-08T18:28:54.894Z,55.70
2022-08-08T18:34:11.221Z,56.47
2022-08-08T18:39:27.848Z,56.67
2022-08-08T18:44:36.202Z,57.28
2022-08-08T18:49:57.517Z,57.88
2022-08-08T18:55:09.846Z,58.18
2022-08-08T19:00:19.844Z,58.48
2022-08-08T19:05:32.070Z,58.75
2022-08-08T19:10:41.892Z,58.75
2022-08-08T19:15:48.431Z,59.24
2022-08-08T19:20:56.172Z,59.97
2022-08-08T19:26:19.856Z,60.18
2022-08-08T19:31:23.573Z,60.52
2022-08-08T19:36:36.103Z,61.16
2022-08-08T19:41:42.773Z,61.54
2022-08-08T19:46:46.861Z,61.87
2022-08-08T19:51:51.584Z,62.31
2022-08-08T19:56:56.575Z,62.48
2022-08-08T20:02:03.174Z,62.65
2022-08-08T20:08:28.105Z,62.73
2022-08-08T20:12:35.559Z,63.21
2022-08-08T20:17:40.639Z,63.38
2022-08-08T20:22:45.799Z,63.86
2022-08-08T20:27:54.161Z,64.38
2022-08-08T20:32:58.468Z,64.98
2022-08-08T20:38:03.895Z,65.13
2022-08-08T20:43:16.435Z,65.25
2022-08-08T20:48:28.336Z,65.52
2022-08-08T20:54:00.657Z,65.91
2022-08-08T20:58:58.543Z,66.49
2022-08-08T21:04:02.194Z,67.45
2022-08-08T21:09:06.496Z,67.78
2022-08-08T21:14:12.060Z,68.20
2022-08-08T21:19:18.245Z,68.65
2022-08-08T21:24:30.001Z,69.16
2022-08-08T21:30:02.799Z,69.44
2022-08-08T21:36:14.097Z,69.55
2022-08-08T21:40:31.314Z,69.63
2022-08-08T21:48:01.185Z,69.89
2022-08-08T21:51:03.595Z,70.19
2022-08-08T21:56:19.799Z,70.40
2022-08-08T22:01:39.079Z,70.91
2022-08-08T22:06:45.393Z,70.75
2022-08-08T22:12:02.613Z,70.80
2022-08-08T22:17:14.816Z,70.88
2022-08-08T22:22:18.968Z,70.36
2022-08-08T22:27:38.479Z,70.38
2022-08-08T22:32:49.220Z,69.44
2022-08-08T22:37:54.777Z,69.56
2022-08-08T22:42:58.943Z,69.66
2022-08-08T22:48:02.768Z,68.82
2022-08-08T22:54:31.404Z,68.45
2022-08-08T22:58:34.623Z,68.99
2022-08-08T23:03:54.683Z,68.97
2022-08-08T23:09:00.222Z,69.20
2022-08-08T23:14:04.053Z,68.40
2022-08-08T23:19:09.317Z,68.32
2022-08-08T23:24:13.046Z,68.16
2022-08-08T23:29:27.004Z,67.93
2022-08-08T23:34:34.327Z,67.62
2022-08-08T23:39:41.940Z,67.78
2022-08-08T23:44:53.336Z,68.15
2022-08-08T23:50:03.160Z,68.20
2022-08-08T23:55:19.524Z,68.34
